createdAt,value
2019-05-29T00:01:46.926Z,18.40
2019-05-29T00:04:18.557Z,18.30
2019-05-29T00:06:57.275Z,18.30
2019-05-29T00:09:28.141Z,18.20
2019-05-29T00:12:02.872Z,18.20
2019-05-29T00:14:38.441Z,18.20
2019-05-29T00:17:12.546Z,18.30
2019-05-29T00:19:45.875Z,18.30
2019-05-29T00:22:18.829Z,18.30
2019-05-29T00:24:51.700Z,18.30
2019-05-29T00:27:21.256Z,18.10
2019-05-29T00:29:59.781Z,17.90
2019-05-29T00:32:29.292Z,17.90
2019-05-29T00:34:58.830Z,17.90
2019-05-29T00:37:28.420Z,17.90
2019-05-29T00:39:58.229Z,18.10
2019-05-29T00:42:29.480Z,18.20
2019-05-29T00:45:00.808Z,18.30
2019-05-29T00:47:35.578Z,18.30
2019-05-29T00:50:09.907Z,18.40
2019-05-29T00:52:44.623Z,18.30
2019-05-29T00:55:31.370Z,18.30
2019-05-29T00:58:03.443Z,18.30
2019-05-29T01:00:38.831Z,18.30
2019-05-29T01:03:09.493Z,18.20
2019-05-29T01:05:39.032Z,18.20
2019-05-29T01:08:12.535Z,18.30
2019-05-29T01:10:46.527Z,18.30
2019-05-29T01:13:17.136Z,18.30
2019-05-29T01:15:52.016Z,18.20
2019-05-29T01:18:35.979Z,17.90
2019-05-29T01:21:07.292Z,17.80
2019-05-29T01:23:46.965Z,17.70
2019-05-29T01:26:27.325Z,17.60
2019-05-29T01:29:00.029Z,17.70
2019-05-29T01:31:31.953Z,17.70
2019-05-29T01:34:01.492Z,17.80
2019-05-29T01:36:33.062Z,17.90
2019-05-29T01:39:05.804Z,17.80
2019-05-29T01:41:36.410Z,17.90
2019-05-29T01:44:07.776Z,17.70
2019-05-29T01:46:41.008Z,17.70
2019-05-29T01:49:19.516Z,17.70
2019-05-29T01:52:13.143Z,17.30
2019-05-29T01:54:55.068Z,16.70
2019-05-29T01:57:40.652Z,16.40
2019-05-29T02:00:20.092Z,16.20
2019-05-29T02:03:02.363Z,16.00
2019-05-29T02:05:39.005Z,15.90
2019-05-29T02:08:22.133Z,15.70
2019-05-29T02:10:59.834Z,15.60
2019-05-29T02:13:40.987Z,15.50
2019-05-29T02:16:18.472Z,15.30
2019-05-29T02:18:57.071Z,15.00
2019-05-29T02:21:36.535Z,14.90
2019-05-29T02:24:12.972Z,14.90
2019-05-29T02:26:52.514Z,14.80
2019-05-29T02:29:26.875Z,14.90
2019-05-29T02:32:17.537Z,14.90
2019-05-29T02:34:55.514Z,14.60
2019-05-29T02:37:45.978Z,14.50
2019-05-29T02:40:23.690Z,14.60
2019-05-29T02:42:56.721Z,14.60
2019-05-29T02:45:50.629Z,14.50
2019-05-29T02:48:12.147Z,14.40
2019-05-29T02:50:40.638Z,14.30
2019-05-29T02:53:13.159Z,14.10
2019-05-29T02:55:45.808Z,14.20
2019-05-29T02:58:21.379Z,14.10
2019-05-29T03:01:05.173Z,14.10
2019-05-29T03:03:41.182Z,14.20
2019-05-29T03:06:17.072Z,14.20
2019-05-29T03:08:54.824Z,14.10
2019-05-29T03:11:31.131Z,14.10
2019-05-29T03:14:01.297Z,14.10
2019-05-29T03:16:34.917Z,14.20
2019-05-29T03:19:09.004Z,14.30
2019-05-29T03:21:42.499Z,14.20
2019-05-29T03:24:13.530Z,14.10
2019-05-29T03:26:42.962Z,14.00
2019-05-29T03:29:12.415Z,13.80
2019-05-29T03:31:47.251Z,13.70
2019-05-29T03:34:16.806Z,13.60
2019-05-29T03:36:48.248Z,13.50
2019-05-29T03:39:17.365Z,13.40
2019-05-29T03:41:47.972Z,13.30
2019-05-29T03:44:18.444Z,13.30
2019-05-29T03:46:48.468Z,13.30
2019-05-29T03:49:18.643Z,13.20
2019-05-29T03:51:48.750Z,13.20
2019-05-29T03:54:22.172Z,13.20
2019-05-29T03:56:55.883Z,13.10
2019-05-29T03:59:26.735Z,13.10
2019-05-29T04:01:58.909Z,13.10
2019-05-29T04:04:29.021Z,13.10
2019-05-29T04:07:05.116Z,13.10
2019-05-29T04:09:42.954Z,13.10
2019-05-29T04:12:19.000Z,13.10
2019-05-29T04:14:47.855Z,13.10
2019-05-29T04:17:21.721Z,13.10
2019-05-29T04:19:52.012Z,13.10
2019-05-29T04:22:30.426Z,13.10
2019-05-29T04:25:02.059Z,13.10
2019-05-29T04:27:35.980Z,13.20
2019-05-29T04:30:17.384Z,13.10
2019-05-29T04:32:49.540Z,13.20
2019-05-29T04:35:21.687Z,13.10
2019-05-29T04:37:51.181Z,13.10
2019-05-29T04:40:22.366Z,13.00
2019-05-29T04:42:53.493Z,13.00
2019-05-29T04:45:25.373Z,13.00
2019-05-29T04:47:57.062Z,13.00
2019-05-29T04:50:31.282Z,13.20
2019-05-29T04:53:01.739Z,13.30
2019-05-29T04:55:33.004Z,13.50
2019-05-29T04:58:05.173Z,13.40
2019-05-29T05:00:39.506Z,13.50
2019-05-29T05:03:10.507Z,13.60
2019-05-29T05:05:41.406Z,13.30
2019-05-29T05:08:10.913Z,13.10
2019-05-29T05:10:46.263Z,13.00
2019-05-29T05:13:31.474Z,12.90
2019-05-29T05:16:03.114Z,12.80
2019-05-29T05:18:43.184Z,12.70
2019-05-29T05:21:16.712Z,12.70
2019-05-29T05:23:50.864Z,12.70
2019-05-29T05:26:21.717Z,12.80
2019-05-29T05:28:52.469Z,12.80
2019-05-29T05:31:25.767Z,12.80
2019-05-29T05:33:59.166Z,12.60
2019-05-29T05:36:33.207Z,12.60
2019-05-29T05:39:10.268Z,12.60
2019-05-29T05:41:39.707Z,12.50
2019-05-29T05:44:13.150Z,12.60
2019-05-29T05:46:47.187Z,12.60
2019-05-29T05:49:21.027Z,12.50
2019-05-29T05:51:50.789Z,12.50
2019-05-29T05:54:39.552Z,12.30
2019-05-29T05:57:14.382Z,12.30
2019-05-29T05:59:52.541Z,12.40
2019-05-29T06:02:25.656Z,12.30
2019-05-29T06:05:07.547Z,12.20
2019-05-29T06:07:40.421Z,12.30
2019-05-29T06:10:10.427Z,12.50
2019-05-29T06:12:42.890Z,12.40
2019-05-29T06:15:15.513Z,12.30
2019-05-29T06:18:04.562Z,12.30
2019-05-29T06:20:16.751Z,12.20
2019-05-29T06:22:47.827Z,12.10
2019-05-29T06:25:20.995Z,12.20
2019-05-29T06:27:50.693Z,12.20
2019-05-29T06:30:22.962Z,12.10
2019-05-29T06:32:55.322Z,12.20
2019-05-29T06:35:30.703Z,12.40
2019-05-29T06:38:05.887Z,12.40
2019-05-29T06:40:40.003Z,12.30
2019-05-29T06:43:19.439Z,12.30
2019-05-29T06:45:51.533Z,12.30
2019-05-29T06:48:50.117Z,12.30
2019-05-29T06:50:58.836Z,12.20
2019-05-29T06:53:29.674Z,12.20
2019-05-29T06:56:02.773Z,12.30
2019-05-29T06:58:36.439Z,12.20
2019-05-29T07:01:08.748Z,12.30
2019-05-29T07:03:41.478Z,12.30
2019-05-29T07:06:11.213Z,12.40
2019-05-29T07:08:45.073Z,12.50
2019-05-29T07:11:13.504Z,12.30
2019-05-29T07:13:47.686Z,12.30
2019-05-29T07:16:16.812Z,12.20
2019-05-29T07:19:22.920Z,12.30
2019-05-29T07:21:19.605Z,12.30
2019-05-29T07:23:51.869Z,12.20
2019-05-29T07:26:26.142Z,12.20
2019-05-29T07:29:07.031Z,12.30
2019-05-29T07:31:26.693Z,12.30
2019-05-29T07:33:59.016Z,12.30
2019-05-29T07:36:39.765Z,12.30
2019-05-29T07:39:15.417Z,12.10
2019-05-29T07:41:56.014Z,12.10
2019-05-29T07:44:30.989Z,12.10
2019-05-29T07:47:09.696Z,12.20
2019-05-29T07:49:42.734Z,12.20
2019-05-29T07:52:21.619Z,12.20
2019-05-29T07:54:52.264Z,12.20
2019-05-29T07:57:23.697Z,12.20
2019-05-29T07:59:54.685Z,12.10
2019-05-29T08:02:25.493Z,12.10
2019-05-29T08:05:07.056Z,12.20
2019-05-29T08:10:32.730Z,12.10
2019-05-29T08:13:06.746Z,12.10
2019-05-29T08:15:54.974Z,12.00
2019-05-29T08:18:17.593Z,12.00
2019-05-29T08:20:50.326Z,11.90
2019-05-29T08:23:22.144Z,12.00
2019-05-29T08:25:54.685Z,12.20
2019-05-29T08:28:30.794Z,12.40
2019-05-29T08:31:06.051Z,12.50
2019-05-29T08:33:35.494Z,12.20
2019-05-29T08:36:14.189Z,12.20
2019-05-29T08:38:45.764Z,12.20
2019-05-29T08:41:21.782Z,12.30
2019-05-29T08:43:54.886Z,12.50
2019-05-29T08:46:27.015Z,12.60
2019-05-29T08:49:03.092Z,12.50
2019-05-29T08:51:34.843Z,12.30
2019-05-29T08:54:23.527Z,12.40
2019-05-29T08:56:48.454Z,12.50
2019-05-29T08:59:25.662Z,12.70
2019-05-29T09:02:01.154Z,12.90
2019-05-29T09:04:32.266Z,13.00
2019-05-29T09:07:04.793Z,13.30
2019-05-29T09:09:35.291Z,13.40
2019-05-29T09:12:07.259Z,13.40
2019-05-29T09:14:36.850Z,13.60
2019-05-29T09:17:07.737Z,13.50
2019-05-29T09:19:38.322Z,13.30
2019-05-29T09:22:13.752Z,13.30
2019-05-29T09:24:44.041Z,13.00
2019-05-29T09:27:17.075Z,12.70
2019-05-29T09:29:46.678Z,12.80
2019-05-29T09:32:46.416Z,12.80
2019-05-29T09:34:53.667Z,12.70
2019-05-29T09:37:25.576Z,12.70
2019-05-29T09:39:55.262Z,12.50
2019-05-29T09:42:25.503Z,12.50
2019-05-29T09:44:59.270Z,12.50
2019-05-29T09:47:29.495Z,12.60
2019-05-29T09:50:05.334Z,12.70
2019-05-29T09:53:08.989Z,12.70
2019-05-29T09:55:41.369Z,12.80
2019-05-29T09:58:15.215Z,13.00
2019-05-29T10:01:05.029Z,13.10
2019-05-29T10:03:22.503Z,13.20
2019-05-29T10:06:01.544Z,13.20
2019-05-29T10:08:35.008Z,13.20
2019-05-29T10:11:11.124Z,13.00
2019-05-29T10:14:02.709Z,13.10
2019-05-29T10:16:38.472Z,13.20
2019-05-29T10:19:10.871Z,13.30
2019-05-29T10:21:46.826Z,13.40
2019-05-29T10:24:18.999Z,13.50
2019-05-29T10:26:53.914Z,13.70
2019-05-29T10:29:29.118Z,13.50
2019-05-29T10:32:04.633Z,13.20
2019-05-29T10:34:46.606Z,13.00
2019-05-29T10:37:20.880Z,12.80
2019-05-29T10:40:10.715Z,13.00
2019-05-29T10:43:12.227Z,13.00
2019-05-29T10:45:24.857Z,13.00
2019-05-29T10:47:57.753Z,13.00
2019-05-29T10:50:30.288Z,12.90
2019-05-29T10:53:02.395Z,13.00
2019-05-29T10:55:34.155Z,13.10
2019-05-29T10:58:09.602Z,13.20
2019-05-29T11:00:47.002Z,13.20
2019-05-29T11:03:25.424Z,13.30
2019-05-29T11:05:58.166Z,13.30
2019-05-29T11:08:31.269Z,13.50
2019-05-29T11:11:02.341Z,13.50
2019-05-29T11:13:33.015Z,13.60
2019-05-29T11:16:02.510Z,13.60
2019-05-29T11:18:31.984Z,13.60
2019-05-29T11:21:01.880Z,13.90
2019-05-29T11:23:31.765Z,14.10
2019-05-29T11:26:01.257Z,14.00
2019-05-29T11:28:31.072Z,13.80
2019-05-29T11:31:06.256Z,13.80
2019-05-29T11:33:34.797Z,13.90
2019-05-29T11:36:12.200Z,13.80
2019-05-29T11:38:36.517Z,13.80
2019-05-29T11:41:25.258Z,13.80
2019-05-29T11:43:39.679Z,13.60
2019-05-29T11:46:10.395Z,13.50
2019-05-29T11:48:41.713Z,13.30
2019-05-29T11:51:17.336Z,13.30
2019-05-29T11:53:51.476Z,13.30
2019-05-29T11:56:23.246Z,13.50
2019-05-29T11:58:54.862Z,13.80
2019-05-29T12:01:46.730Z,13.90
2019-05-29T12:04:22.875Z,14.20
2019-05-29T12:06:36.015Z,14.20
2019-05-29T12:09:09.335Z,14.40
2019-05-29T12:11:47.597Z,14.50
2019-05-29T12:14:19.440Z,14.60
2019-05-29T12:16:49.182Z,14.70
2019-05-29T12:19:19.185Z,15.00
2019-05-29T12:21:52.371Z,15.40
2019-05-29T12:24:21.907Z,15.60
2019-05-29T12:26:52.505Z,15.70
2019-05-29T12:29:23.195Z,15.80
2019-05-29T12:31:52.930Z,15.40
2019-05-29T12:34:24.007Z,15.10
2019-05-29T12:36:55.246Z,15.10
2019-05-29T12:39:26.146Z,14.90
2019-05-29T12:41:57.449Z,15.00
2019-05-29T12:44:27.113Z,14.90
2019-05-29T12:46:57.766Z,14.80
2019-05-29T12:49:27.352Z,14.70
2019-05-29T12:51:57.645Z,14.80
2019-05-29T12:54:27.285Z,14.60
2019-05-29T12:56:58.321Z,14.90
2019-05-29T12:59:32.088Z,14.90
2019-05-29T13:02:04.772Z,14.80
2019-05-29T13:05:05.073Z,15.00
2019-05-29T13:07:12.161Z,15.20
2019-05-29T13:09:44.789Z,15.30
2019-05-29T13:12:16.953Z,15.10
2019-05-29T13:14:54.739Z,15.10
2019-05-29T13:17:28.922Z,15.20
2019-05-29T13:20:07.206Z,15.40
2019-05-29T13:22:30.367Z,15.50
2019-05-29T13:25:07.411Z,15.50
2019-05-29T13:27:41.107Z,15.60
2019-05-29T13:30:15.843Z,15.60
2019-05-29T13:32:51.223Z,16.00
2019-05-29T13:35:25.459Z,15.80
2019-05-29T13:37:56.888Z,15.60
2019-05-29T13:40:29.895Z,15.40
2019-05-29T13:43:11.194Z,15.50
2019-05-29T13:45:37.310Z,15.50
2019-05-29T13:48:10.133Z,15.50
2019-05-29T13:50:39.740Z,15.60
2019-05-29T13:53:13.394Z,15.70
2019-05-29T13:55:44.604Z,15.70
2019-05-29T13:58:14.026Z,15.50
2019-05-29T14:00:48.574Z,15.50
2019-05-29T14:03:22.650Z,15.50
2019-05-29T14:06:00.639Z,15.60
2019-05-29T14:08:32.901Z,15.70
2019-05-29T14:11:07.132Z,15.60
2019-05-29T14:13:38.434Z,15.70
2019-05-29T14:16:15.305Z,15.60
2019-05-29T14:18:44.905Z,15.80
2019-05-29T14:21:17.540Z,16.20
2019-05-29T14:23:46.995Z,16.30
2019-05-29T14:26:18.094Z,16.40
2019-05-29T14:28:47.600Z,16.50
2019-05-29T14:31:18.342Z,16.30
2019-05-29T14:33:50.459Z,16.50
2019-05-29T14:36:21.505Z,16.50
2019-05-29T14:38:53.830Z,16.30
2019-05-29T14:41:25.119Z,16.20
2019-05-29T14:43:54.827Z,16.30
2019-05-29T14:46:25.435Z,16.40
2019-05-29T14:48:54.993Z,16.40
2019-05-29T14:51:24.467Z,16.60
2019-05-29T14:53:53.951Z,16.80
2019-05-29T14:56:25.191Z,16.90
2019-05-29T14:58:54.785Z,16.70
2019-05-29T15:01:24.255Z,16.40
2019-05-29T15:03:53.698Z,16.30
2019-05-29T15:06:23.212Z,16.20
2019-05-29T15:08:52.639Z,16.10
2019-05-29T15:11:22.096Z,16.10
2019-05-29T15:13:53.270Z,16.00
2019-05-29T15:16:22.687Z,16.10
2019-05-29T15:18:52.176Z,16.00
2019-05-29T15:21:21.721Z,16.20
2019-05-29T15:23:51.238Z,16.20
2019-05-29T15:26:20.689Z,16.20
2019-05-29T15:28:50.223Z,16.30
2019-05-29T15:31:19.651Z,16.50
2019-05-29T15:33:49.118Z,16.60
2019-05-29T15:36:21.006Z,16.70
2019-05-29T15:38:50.475Z,16.60
2019-05-29T15:41:19.904Z,16.50
2019-05-29T15:43:49.535Z,16.30
2019-05-29T15:46:19.310Z,16.40
2019-05-29T15:48:48.750Z,16.40
2019-05-29T15:51:21.726Z,16.20
2019-05-29T15:53:51.260Z,16.30
2019-05-29T15:56:27.521Z,16.40
2019-05-29T15:58:53.446Z,16.60
2019-05-29T16:01:26.121Z,16.80
2019-05-29T16:04:00.245Z,16.80
2019-05-29T16:06:32.707Z,16.80
2019-05-29T16:09:05.352Z,16.90
2019-05-29T16:11:43.216Z,17.00
2019-05-29T16:14:14.945Z,17.10
2019-05-29T16:16:46.780Z,17.10
2019-05-29T16:19:20.362Z,17.00
2019-05-29T16:21:49.786Z,16.80
2019-05-29T16:24:19.265Z,16.70
2019-05-29T16:26:49.286Z,16.60
2019-05-29T16:29:19.724Z,16.60
2019-05-29T16:31:51.535Z,16.70
2019-05-29T16:34:21.977Z,16.70
2019-05-29T16:36:52.044Z,16.70
2019-05-29T16:39:22.713Z,16.70
2019-05-29T16:41:53.241Z,16.70
2019-05-29T16:44:29.018Z,16.60
2019-05-29T16:46:53.819Z,16.50
2019-05-29T16:49:25.904Z,16.50
2019-05-29T16:51:55.382Z,16.60
2019-05-29T16:54:25.888Z,16.80
2019-05-29T16:56:58.708Z,16.80
2019-05-29T16:59:37.571Z,16.80
2019-05-29T17:02:09.009Z,16.70
2019-05-29T17:04:47.521Z,16.60
2019-05-29T17:07:20.624Z,16.70
2019-05-29T17:09:58.620Z,16.80
2019-05-29T17:12:36.097Z,16.70
2019-05-29T17:15:17.125Z,16.70
2019-05-29T17:17:55.556Z,16.80
2019-05-29T17:20:45.491Z,16.80
2019-05-29T17:23:20.893Z,17.00
2019-05-29T17:26:09.737Z,17.10
2019-05-29T17:28:30.217Z,17.20
2019-05-29T17:31:05.285Z,17.30
2019-05-29T17:33:38.242Z,17.30
2019-05-29T17:36:10.916Z,17.10
2019-05-29T17:38:43.834Z,17.10
2019-05-29T17:41:17.304Z,16.90
2019-05-29T17:43:58.453Z,16.60
2019-05-29T17:46:27.630Z,16.40
2019-05-29T17:49:00.765Z,16.20
2019-05-29T17:51:34.190Z,16.20
2019-05-29T17:54:03.763Z,16.20
2019-05-29T17:56:36.560Z,16.40
2019-05-29T17:59:05.594Z,16.70
2019-05-29T18:01:35.288Z,17.00
2019-05-29T18:04:04.791Z,17.00
2019-05-29T18:06:38.663Z,17.00
2019-05-29T18:09:12.552Z,17.10
2019-05-29T18:11:47.261Z,16.90
2019-05-29T18:14:17.637Z,17.00
2019-05-29T18:16:50.067Z,17.20
2019-05-29T18:19:23.768Z,17.40
2019-05-29T18:21:56.685Z,17.20
2019-05-29T18:24:26.191Z,17.00
2019-05-29T18:26:59.278Z,16.90
2019-05-29T18:29:31.935Z,16.60
2019-05-29T18:32:05.157Z,16.20
2019-05-29T18:34:42.539Z,16.20
2019-05-29T18:37:12.913Z,16.00
2019-05-29T18:39:43.420Z,15.90
2019-05-29T18:42:13.473Z,15.80
2019-05-29T18:44:43.023Z,15.70
2019-05-29T18:47:16.497Z,15.60
2019-05-29T18:49:47.136Z,15.60
2019-05-29T18:52:17.558Z,15.30
2019-05-29T18:54:47.334Z,15.20
2019-05-29T18:57:29.577Z,15.10
2019-05-29T19:00:10.170Z,15.10
2019-05-29T19:02:43.411Z,15.10
2019-05-29T19:05:12.999Z,15.10
2019-05-29T19:07:42.432Z,15.00
2019-05-29T19:10:14.102Z,15.00
2019-05-29T19:12:45.074Z,14.90
2019-05-29T19:15:15.201Z,14.90
2019-05-29T19:17:45.066Z,15.00
2019-05-29T19:20:15.256Z,14.90
2019-05-29T19:22:44.726Z,14.80
2019-05-29T19:25:14.255Z,14.70
2019-05-29T19:27:43.735Z,14.60
2019-05-29T19:30:13.706Z,14.50
2019-05-29T19:32:44.217Z,14.50
2019-05-29T19:35:13.977Z,14.50
2019-05-29T19:37:43.519Z,14.40
2019-05-29T19:40:15.699Z,14.30
2019-05-29T19:42:47.903Z,14.30
2019-05-29T19:45:31.129Z,14.30
2019-05-29T19:48:11.067Z,14.20
2019-05-29T19:50:40.192Z,14.20
2019-05-29T19:53:09.744Z,14.10
2019-05-29T19:55:40.879Z,14.00
2019-05-29T19:58:12.545Z,14.00
2019-05-29T20:00:44.567Z,13.90
2019-05-29T20:03:21.305Z,13.80
2019-05-29T20:05:54.278Z,13.70
2019-05-29T20:08:36.237Z,13.60
2019-05-29T20:11:06.416Z,13.70
2019-05-29T20:13:35.927Z,13.60
2019-05-29T20:16:05.453Z,13.50
2019-05-29T20:18:36.511Z,13.50
2019-05-29T20:21:08.511Z,13.50
2019-05-29T20:23:38.834Z,13.40
2019-05-29T20:26:09.663Z,13.40
2019-05-29T20:28:39.058Z,13.30
2019-05-29T20:31:11.890Z,13.20
2019-05-29T20:33:39.991Z,13.20
2019-05-29T20:36:09.548Z,13.20
2019-05-29T20:38:39.316Z,13.10
2019-05-29T20:41:08.917Z,13.10
2019-05-29T20:43:39.752Z,13.00
2019-05-29T20:46:10.296Z,13.00
2019-05-29T20:48:39.884Z,13.00
2019-05-29T20:51:12.183Z,12.90
2019-05-29T20:53:41.862Z,12.90
2019-05-29T20:56:11.463Z,12.90
2019-05-29T20:58:41.958Z,12.80
2019-05-29T21:01:11.480Z,12.70
2019-05-29T21:03:44.657Z,12.70
2019-05-29T21:06:15.241Z,12.70
2019-05-29T21:08:46.260Z,12.50
2019-05-29T21:11:18.179Z,12.50
2019-05-29T21:13:55.353Z,12.50
2019-05-29T21:19:18.537Z,12.70
2019-05-29T21:21:57.021Z,12.70
2019-05-29T21:24:28.181Z,12.50
2019-05-29T21:27:03.234Z,12.40
2019-05-29T21:29:35.178Z,12.50
2019-05-29T21:32:08.281Z,12.50
2019-05-29T21:34:44.128Z,12.50
2019-05-29T21:37:15.883Z,12.50
2019-05-29T21:39:47.569Z,12.40
2019-05-29T21:42:19.693Z,12.30
2019-05-29T21:45:02.721Z,12.20
2019-05-29T21:47:37.173Z,12.00
2019-05-29T21:50:13.489Z,12.00
2019-05-29T21:52:47.676Z,12.00
2019-05-29T21:55:19.076Z,12.00
2019-05-29T21:57:56.247Z,12.00
2019-05-29T22:00:40.133Z,11.90
2019-05-29T22:03:12.499Z,11.80
2019-05-29T22:05:48.877Z,11.80
2019-05-29T22:08:18.103Z,11.80
2019-05-29T22:10:57.428Z,11.80
2019-05-29T22:13:34.709Z,11.70
2019-05-29T22:16:06.518Z,11.80
2019-05-29T22:18:40.861Z,11.60
2019-05-29T22:21:10.321Z,11.60
2019-05-29T22:23:43.019Z,11.40
2019-05-29T22:26:16.008Z,11.50
2019-05-29T22:28:46.997Z,11.40
2019-05-29T22:31:22.729Z,11.40
2019-05-29T22:33:47.498Z,11.40
2019-05-29T22:36:20.086Z,11.50
2019-05-29T22:38:59.628Z,11.60
2019-05-29T22:41:37.232Z,11.70
2019-05-29T22:44:08.330Z,11.60
2019-05-29T22:46:41.451Z,11.60
2019-05-29T22:49:11.570Z,11.60
2019-05-29T22:51:46.880Z,11.50
2019-05-29T22:54:18.252Z,11.50
2019-05-29T22:56:49.933Z,11.30
2019-05-29T22:59:31.951Z,11.30
2019-05-29T23:02:28.611Z,11.00
2019-05-29T23:04:38.590Z,11.00
2019-05-29T23:07:13.140Z,11.10
2019-05-29T23:12:43.983Z,11.30
2019-05-29T23:15:16.588Z,11.10
2019-05-29T23:17:52.421Z,10.90
2019-05-29T23:20:28.288Z,10.80
2019-05-29T23:22:58.609Z,10.90
2019-05-29T23:25:31.123Z,11.00
2019-05-29T23:28:05.676Z,11.00
2019-05-29T23:30:38.137Z,11.00
2019-05-29T23:33:08.294Z,10.90
2019-05-29T23:35:41.153Z,10.90
2019-05-29T23:38:16.568Z,11.00
2019-05-29T23:40:49.306Z,11.00
2019-05-29T23:43:25.936Z,11.00
2019-05-29T23:46:10.812Z,10.70
2019-05-29T23:48:47.775Z,10.30
2019-05-29T23:51:21.795Z,10.30
2019-05-29T23:53:55.668Z,10.40
2019-05-29T23:56:28.538Z,10.40
2019-05-29T23:59:05.531Z,10.50
